Time;durP1;ratioP1;P1;durP2;ratioP2;P2;SDS_P1;SDS_P2;PMS_P1;PMS_P2;Temp;Humidity;BMP_temperature;BMP_pressure;BME280_temperature;BME280_humidity;BME280_pressure;Samples;Min_cycle;Max_cycle;Signal;HPM_P1;HPM_P2
2023/05/28 00:01:45;;;;;;;1999.90;999.90;;;17.80;99.90;;;;;;5073367;28;20025;-81
2023/05/28 00:04:11;;;;;;;1999.90;999.90;;;17.70;99.90;;;;;;5073633;28;20095;-73
2023/05/28 00:06:36;;;;;;;1999.90;999.90;;;17.70;99.90;;;;;;5074311;28;20059;-73
2023/05/28 00:09:02;;;;;;;1999.90;999.90;;;17.60;99.90;;;;;;5073500;28;20051;-81
2023/05/28 00:11:28;;;;;;;1999.90;999.90;;;17.60;99.90;;;;;;5073796;28;20028;-81
2023/05/28 00:13:53;;;;;;;1999.90;999.90;;;17.50;99.90;;;;;;5072630;28;20020;-81
2023/05/28 00:16:19;;;;;;;1999.90;999.90;;;17.50;99.90;;;;;;5070281;28;20047;-81
2023/05/28 00:18:45;;;;;;;1999.90;999.90;;;17.40;99.90;;;;;;5054030;28;20472;-73
2023/05/28 00:21:11;;;;;;;1999.90;999.90;;;17.40;99.90;;;;;;5053971;28;20033;-73
2023/05/28 00:23:37;;;;;;;1999.90;999.90;;;17.30;99.90;;;;;;5051634;28;20021;-73
2023/05/28 00:26:03;;;;;;;1999.90;999.90;;;17.30;99.90;;;;;;5052814;28;20025;-81
2023/05/28 00:28:29;;;;;;;1999.90;999.90;;;17.30;99.90;;;;;;5051955;28;20079;-81
2023/05/28 00:30:54;;;;;;;1999.90;999.90;;;17.30;99.90;;;;;;5053617;28;20021;-72
2023/05/28 00:33:20;;;;;;;1999.90;999.90;;;17.20;99.90;;;;;;5073317;28;20108;-73
2023/05/28 00:35:46;;;;;;;1999.90;999.90;;;17.20;99.90;;;;;;5073580;28;20024;-73
2023/05/28 00:38:11;;;;;;;1999.90;999.90;;;17.20;99.90;;;;;;5073187;28;20028;-81
2023/05/28 00:40:41;;;;;;;1999.90;999.90;;;17.20;99.90;;;;;;5073123;28;20025;-73
2023/05/28 00:43:07;;;;;;;1999.90;999.90;;;17.10;99.90;;;;;;5073411;28;20143;-72
2023/05/28 00:45:32;;;;;;;1999.90;999.90;;;17.10;99.90;;;;;;5073541;28;20048;-73
2023/05/28 00:47:58;;;;;;;1999.90;999.90;;;17.10;99.90;;;;;;5073164;28;20035;-80
2023/05/28 00:50:25;;;;;;;1999.90;999.90;;;17.10;99.90;;;;;;5073109;28;20415;-81
2023/05/28 00:52:52;;;;;;;1999.90;999.90;;;17.00;99.90;;;;;;5073460;28;20039;-81
2023/05/28 00:55:17;;;;;;;1999.90;999.90;;;17.00;99.90;;;;;;5073187;28;20499;-81
2023/05/28 00:57:45;;;;;;;1999.90;999.90;;;16.90;99.90;;;;;;5072809;28;20028;-73
2023/05/28 01:00:11;;;;;;;1999.90;999.90;;;16.90;99.90;;;;;;5073095;28;20023;-80
2023/05/28 01:02:37;;;;;;;1999.90;999.90;;;16.90;99.90;;;;;;5072632;28;20419;-81
2023/05/28 01:05:03;;;;;;;1999.90;999.90;;;16.80;99.90;;;;;;5072886;28;20025;-81
2023/05/28 01:07:29;;;;;;;1999.90;999.90;;;16.80;99.90;;;;;;5072981;28;20044;-81
2023/05/28 01:09:55;;;;;;;1999.90;999.90;;;16.80;99.90;;;;;;5072710;28;20052;-81
2023/05/28 01:12:23;;;;;;;1999.90;999.90;;;16.90;99.90;;;;;;5072766;28;20048;-73
2023/05/28 01:14:49;;;;;;;1999.90;999.90;;;16.90;99.90;;;;;;5072847;28;20028;-81
2023/05/28 01:17:14;;;;;;;1999.90;999.90;;;16.90;99.90;;;;;;5061728;28;20099;-81
2023/05/28 01:19:42;;;;;;;1999.90;999.90;;;16.90;99.90;;;;;;5053019;28;20109;-73
2023/05/28 01:22:12;;;;;;;1999.90;999.90;;;16.80;99.90;;;;;;5052774;28;20438;-73
2023/05/28 01:24:39;;;;;;;1999.90;999.90;;;16.80;99.90;;;;;;5052739;28;20555;-72
2023/05/28 01:27:06;;;;;;;1999.90;999.90;;;16.80;99.90;;;;;;5051903;28;20021;-81
2023/05/28 01:29:32;;;;;;;1999.90;999.90;;;16.70;99.90;;;;;;5051983;28;20032;-81
2023/05/28 01:31:58;;;;;;;1999.90;999.90;;;16.70;99.90;;;;;;5052682;28;20024;-81
2023/05/28 01:34:24;;;;;;;1999.90;999.90;;;16.70;99.90;;;;;;5052625;28;20369;-73
2023/05/28 01:37:00;;;;;;;1999.90;999.90;;;16.60;99.90;;;;;;5071461;28;20507;-72
2023/05/28 01:39:30;;;;;;;1999.90;999.90;;;16.60;99.90;;;;;;5075281;28;20020;-81
2023/05/28 01:41:57;;;;;;;1999.90;999.90;;;16.50;99.90;;;;;;5076481;28;20025;-81
2023/05/28 01:44:23;;;;;;;1999.90;999.90;;;16.40;99.90;;;;;;5076001;28;20548;-81
2023/05/28 01:46:52;;;;;;;1999.90;999.90;;;16.50;99.90;;;;;;5076620;28;20107;-81
2023/05/28 01:49:19;;;;;;;1999.90;999.90;;;16.40;99.90;;;;;;5076148;28;20411;-72
2023/05/28 01:51:45;;;;;;;1999.90;999.90;;;16.40;99.90;;;;;;5076806;28;20162;-72
2023/05/28 01:54:11;;;;;;;1999.90;999.90;;;16.40;99.90;;;;;;5076746;28;20479;-81
2023/05/28 01:56:37;;;;;;;1999.90;999.90;;;16.30;99.90;;;;;;5076598;28;20052;-81
2023/05/28 01:59:03;;;;;;;1999.90;999.90;;;16.30;99.90;;;;;;5076173;28;20025;-81
2023/05/28 02:01:32;;;;;;;1999.90;999.90;;;16.20;99.90;;;;;;5076121;28;20043;-81
2023/05/28 02:03:59;;;;;;;1999.90;999.90;;;16.10;99.90;;;;;;5076130;28;20021;-73
2023/05/28 02:06:27;;;;;;;1999.90;999.90;;;16.10;99.90;;;;;;5076048;28;20048;-81
2023/05/28 02:08:53;;;;;;;1999.90;999.90;;;16.00;99.90;;;;;;5075879;28;20099;-81
2023/05/28 02:11:19;;;;;;;1999.90;999.90;;;16.00;99.90;;;;;;5075994;28;20029;-81
2023/05/28 02:13:44;;;;;;;1999.90;999.90;;;16.10;99.90;;;;;;5075859;28;20021;-80
2023/05/28 02:16:11;;;;;;;1999.90;999.90;;;16.10;99.90;;;;;;5074261;28;20048;-81
2023/05/28 02:18:37;;;;;;;1999.90;999.90;;;16.10;99.90;;;;;;5056007;28;20025;-81
2023/05/28 02:21:06;;;;;;;1999.90;999.90;;;16.10;99.90;;;;;;5076186;28;20430;-81
2023/05/28 02:23:31;;;;;;;1999.90;999.90;;;16.10;99.90;;;;;;5075890;28;20016;-81
2023/05/28 02:25:57;;;;;;;1999.90;999.90;;;16.00;99.90;;;;;;5075796;28;20029;-81
2023/05/28 02:28:22;;;;;;;1999.90;999.90;;;16.00;99.90;;;;;;5075685;28;20499;-72
2023/05/28 02:30:48;;;;;;;1999.90;999.90;;;16.00;99.90;;;;;;5074474;28;20032;-81
2023/05/28 02:33:14;;;;;;;1999.90;999.90;;;16.00;99.90;;;;;;5075616;28;20116;-73
2023/05/28 02:35:40;;;;;;;1999.90;999.90;;;16.00;99.90;;;;;;5075640;28;20121;-72
2023/05/28 02:38:05;;;;;;;1999.90;999.90;;;16.00;99.90;;;;;;5075531;28;20020;-81
2023/05/28 02:40:31;;;;;;;1999.90;999.90;;;16.00;99.90;;;;;;5057655;28;20025;-73
2023/05/28 02:42:57;;;;;;;1999.90;999.90;;;16.00;99.90;;;;;;5075687;28;20028;-81
2023/05/28 02:45:22;;;;;;;1999.90;999.90;;;16.00;99.90;;;;;;5075242;28;20021;-81
2023/05/28 02:47:48;;;;;;;1999.90;999.90;;;16.00;99.90;;;;;;5075426;28;20020;-81
2023/05/28 02:50:13;;;;;;;1999.90;999.90;;;16.00;99.90;;;;;;5074211;28;20021;-81
2023/05/28 02:52:39;;;;;;;1999.90;999.90;;;15.90;99.90;;;;;;5075778;28;20035;-81
2023/05/28 02:55:05;;;;;;;1999.90;999.90;;;15.90;99.90;;;;;;5075471;28;20024;-73
2023/05/28 02:57:31;;;;;;;1999.90;999.90;;;15.80;99.90;;;;;;5075104;28;20479;-80
2023/05/28 02:59:57;;;;;;;1999.90;999.90;;;15.80;99.90;;;;;;5075098;28;20055;-81
2023/05/28 03:02:22;;;;;;;1999.90;999.90;;;15.80;99.90;;;;;;5074891;28;20390;-72
2023/05/28 03:04:48;;;;;;;1999.90;999.90;;;15.70;99.90;;;;;;5074952;28;20063;-81
2023/05/28 03:07:13;;;;;;;1999.90;999.90;;;15.70;99.90;;;;;;5075201;28;20079;-72
2023/05/28 03:09:39;;;;;;;1999.90;999.90;;;15.70;99.90;;;;;;5074819;28;20086;-73
2023/05/28 03:12:05;;;;;;;1999.90;999.90;;;15.70;99.90;;;;;;5074996;28;20444;-81
2023/05/28 03:14:31;;;;;;;1999.90;999.90;;;15.70;99.90;;;;;;5074902;28;20039;-80
2023/05/28 03:16:56;;;;;;;1999.90;999.90;;;15.70;99.90;;;;;;5066554;28;20017;-81
2023/05/28 03:19:22;;;;;;;1999.90;999.90;;;15.70;99.90;;;;;;5054790;28;20029;-72
2023/05/28 03:21:48;;;;;;;1999.90;999.90;;;15.60;99.90;;;;;;5054822;28;20083;-81
2023/05/28 03:24:13;;;;;;;1999.90;999.90;;;15.60;99.90;;;;;;5074536;28;20025;-80
2023/05/28 03:26:39;;;;;;;1999.90;999.90;;;15.50;99.90;;;;;;5074794;28;20028;-72
2023/05/28 03:29:04;;;;;;;1999.90;999.90;;;15.50;99.90;;;;;;5074993;28;20032;-81
2023/05/28 03:31:30;;;;;;;1999.90;999.90;;;15.50;99.90;;;;;;5074062;28;20032;-81
2023/05/28 03:33:56;;;;;;;1999.90;999.90;;;15.50;99.90;;;;;;5074465;28;20024;-72
2023/05/28 03:36:24;;;;;;;1999.90;999.90;;;15.40;99.90;;;;;;5074505;28;20017;-72
2023/05/28 03:38:50;;;;;;;1999.90;999.90;;;15.40;99.90;;;;;;5074365;28;20037;-81
2023/05/28 03:41:15;;;;;;;1999.90;999.90;;;15.40;99.90;;;;;;5074735;28;20472;-81
2023/05/28 03:43:41;;;;;;;1999.90;999.90;;;15.30;99.90;;;;;;5074445;28;20029;-81
2023/05/28 03:46:07;;;;;;;1999.90;999.90;;;15.30;99.90;;;;;;5074121;28;20028;-72
2023/05/28 03:48:32;;;;;;;1999.90;999.90;;;15.30;99.90;;;;;;5074333;28;20107;-72
2023/05/28 03:50:58;;;;;;;1999.90;999.90;;;15.30;99.90;;;;;;5074311;28;20021;-81
2023/05/28 03:53:24;;;;;;;1999.90;999.90;;;15.30;99.90;;;;;;5074779;28;20441;-81
2023/05/28 03:55:51;;;;;;;1999.90;999.90;;;15.20;99.90;;;;;;5056035;28;20032;-81
2023/05/28 03:58:17;;;;;;;1999.90;999.90;;;15.30;99.90;;;;;;5055923;28;20081;-81
2023/05/28 04:00:42;;;;;;;1999.90;999.90;;;15.20;99.90;;;;;;5073840;28;20049;-72
2023/05/28 04:03:08;;;;;;;1999.90;999.90;;;15.20;99.90;;;;;;5073518;28;20083;-81
2023/05/28 04:05:34;;;;;;;1999.90;999.90;;;15.20;99.90;;;;;;5074144;28;20048;-81
2023/05/28 04:08:00;;;;;;;1999.90;999.90;;;15.20;99.90;;;;;;5073832;28;20135;-81
2023/05/28 04:10:25;;;;;;;1999.90;999.90;;;15.10;99.90;;;;;;5073529;28;20507;-81
2023/05/28 04:12:54;;;;;;;1999.90;999.90;;;15.20;99.90;;;;;;5073745;28;20025;-81
2023/05/28 04:15:20;;;;;;;1999.90;999.90;;;15.10;99.90;;;;;;5073752;28;20029;-81
2023/05/28 04:17:46;;;;;;;1999.90;999.90;;;15.10;99.90;;;;;;5058296;28;20028;-81
2023/05/28 04:20:12;;;;;;;1999.90;999.90;;;15.10;99.90;;;;;;5072925;28;20109;-81
2023/05/28 04:22:37;;;;;;;1999.90;999.90;;;15.10;99.90;;;;;;5073802;28;20114;-81
2023/05/28 04:25:03;;;;;;;1999.90;999.90;;;15.10;99.90;;;;;;5073754;28;20028;-72
2023/05/28 04:27:30;;;;;;;1999.90;999.90;;;15.00;99.90;;;;;;5073413;28;20028;-72
2023/05/28 04:29:56;;;;;;;1999.90;999.90;;;15.10;99.90;;;;;;5073591;28;20025;-81
2023/05/28 04:32:23;;;;;;;1999.90;999.90;;;15.10;99.90;;;;;;5072664;28;20049;-81
2023/05/28 04:34:51;;;;;;;1999.90;999.90;;;15.00;99.90;;;;;;5073598;28;20403;-72
2023/05/28 04:37:17;;;;;;;1999.90;999.90;;;15.10;99.90;;;;;;5073274;28;20017;-80
2023/05/28 04:39:43;;;;;;;1999.90;999.90;;;15.10;99.90;;;;;;5073231;28;20060;-72
2023/05/28 04:42:13;;;;;;;1999.90;999.90;;;15.10;99.90;;;;;;5073298;28;20024;-81
2023/05/28 04:44:40;;;;;;;1999.90;999.90;;;15.10;99.90;;;;;;5073807;28;20024;-81
2023/05/28 04:47:06;;;;;;;1999.90;999.90;;;15.10;99.90;;;;;;5073171;28;20023;-81
2023/05/28 04:49:31;;;;;;;1999.90;999.90;;;15.10;99.90;;;;;;5073007;28;20077;-81
2023/05/28 04:51:57;;;;;;;1999.90;999.90;;;15.20;99.90;;;;;;5073073;28;20107;-72
2023/05/28 04:54:23;;;;;;;1999.90;999.90;;;15.20;99.90;;;;;;5073076;28;20047;-81
2023/05/28 04:56:49;;;;;;;1999.90;999.90;;;15.20;99.90;;;;;;5073135;28;20025;-81
2023/05/28 04:59:14;;;;;;;1999.90;999.90;;;15.30;99.90;;;;;;5072900;28;20047;-81
2023/05/28 05:01:41;;;;;;;1999.90;999.90;;;15.40;99.90;;;;;;5072749;28;20032;-81
2023/05/28 05:04:08;;;;;;;1999.90;999.90;;;15.40;99.90;;;;;;5072895;28;20020;-72
2023/05/28 05:06:34;;;;;;;1999.90;999.90;;;15.40;99.90;;;;;;5072703;28;20012;-72
2023/05/28 05:08:59;;;;;;;1999.90;999.90;;;15.40;99.90;;;;;;5072666;28;20507;-81
2023/05/28 05:11:26;;;;;;;1999.90;999.90;;;15.50;99.90;;;;;;5073062;28;20052;-81
2023/05/28 05:13:52;;;;;;;1999.90;999.90;;;15.50;99.90;;;;;;5071854;28;20031;-80
2023/05/28 05:16:18;;;;;;;1999.90;999.90;;;15.60;99.90;;;;;;5069320;28;20431;-72
2023/05/28 05:18:44;;;;;;;1999.90;999.90;;;15.60;99.90;;;;;;5052904;28;20391;-72
2023/05/28 05:21:12;;;;;;;1999.90;999.90;;;15.70;99.90;;;;;;5053093;28;20100;-81
2023/05/28 05:23:38;;;;;;;1999.90;999.90;;;15.80;99.90;;;;;;5052928;28;20025;-80
2023/05/28 05:26:04;;;;;;;1999.90;999.90;;;15.80;99.90;;;;;;5052922;28;20023;-81
2023/05/28 05:28:30;;;;;;;1999.90;999.90;;;15.80;99.90;;;;;;5052678;28;20218;-81
2023/05/28 05:30:56;;;;;;;1999.90;999.90;;;15.80;99.90;;;;;;5072835;28;20036;-75
2023/05/28 05:33:21;;;;;;;1999.90;999.90;;;15.90;99.90;;;;;;5071951;28;20024;-81
2023/05/28 05:35:47;;;;;;;1999.90;999.90;;;15.90;99.90;;;;;;5072730;28;20103;-81
2023/05/28 05:38:12;;;;;;;1999.90;999.90;;;16.00;99.90;;;;;;5072352;28;20025;-81
2023/05/28 05:40:38;;;;;;;1999.90;999.90;;;16.00;99.90;;;;;;5072768;28;20096;-81
2023/05/28 05:43:03;;;;;;;1999.90;999.90;;;16.00;99.90;;;;;;5072549;28;20017;-73
2023/05/28 05:45:29;;;;;;;1999.90;999.90;;;16.10;99.90;;;;;;5072877;28;20016;-72
2023/05/28 05:47:54;;;;;;;1999.90;999.90;;;16.10;99.90;;;;;;5072466;28;20035;-81
2023/05/28 05:50:20;;;;;;;1999.90;999.90;;;16.20;99.90;;;;;;5072245;28;20438;-81
2023/05/28 05:52:46;;;;;;;1999.90;999.90;;;16.20;99.90;;;;;;5054508;28;20423;-72
2023/05/28 05:55:11;;;;;;;1999.90;999.90;;;16.30;99.90;;;;;;5072545;28;20024;-73
2023/05/28 05:57:37;;;;;;;1999.90;999.90;;;16.30;99.90;;;;;;5072540;28;20082;-81
2023/05/28 06:00:08;;;;;;;1999.90;999.90;;;16.40;99.90;;;;;;5072274;28;20029;-81
2023/05/28 06:02:35;;;;;;;1999.90;999.90;;;16.50;99.90;;;;;;5071689;28;20545;-81
2023/05/28 06:05:02;;;;;;;1999.90;999.90;;;16.60;99.90;;;;;;5072394;28;20055;-81
2023/05/28 06:07:28;;;;;;;1999.90;999.90;;;16.70;99.90;;;;;;5072326;28;20059;-81
2023/05/28 06:09:54;;;;;;;1999.90;999.90;;;16.80;99.90;;;;;;5071986;28;20495;-72
2023/05/28 06:12:19;;;;;;;1999.90;999.90;;;16.80;99.90;;;;;;5072549;28;20029;-80
2023/05/28 06:14:46;;;;;;;1999.90;999.90;;;16.90;99.90;;;;;;5071927;28;20095;-81
2023/05/28 06:17:12;;;;;;;1999.90;999.90;;;17.00;99.90;;;;;;5061613;28;20037;-81
2023/05/28 06:19:38;;;;;;;1999.90;999.90;;;17.10;99.90;;;;;;5052456;28;20488;-81
2023/05/28 06:22:04;;;;;;;1999.90;999.90;;;17.20;99.90;;;;;;5072336;28;20399;-81
2023/05/28 06:24:30;;;;;;;1999.90;999.90;;;17.30;99.90;;;;;;5073128;28;20016;-72
2023/05/28 06:26:56;;;;;;;1999.90;999.90;;;17.40;99.90;;;;;;5075764;28;20028;-81
2023/05/28 06:29:21;;;;;;;1999.90;999.90;;;17.50;99.90;;;;;;5075773;28;20027;-81
2023/05/28 06:31:47;;;;;;;1999.90;999.90;;;17.60;99.90;;;;;;5076044;28;20028;-81
2023/05/28 06:34:12;;;;;;;1999.90;999.90;;;17.70;99.90;;;;;;5056938;28;20422;-81
2023/05/28 06:36:39;;;;;;;1999.90;999.90;;;17.80;99.90;;;;;;5075612;28;20036;-72
2023/05/28 06:39:05;;;;;;;1999.90;999.90;;;17.80;99.90;;;;;;5075413;28;20534;-81
2023/05/28 06:41:30;;;;;;;1999.90;999.90;;;17.90;99.90;;;;;;5075626;28;20095;-82
2023/05/28 06:43:56;;;;;;;1999.90;999.90;;;18.00;99.90;;;;;;5075674;28;20475;-81
2023/05/28 06:46:22;;;;;;;1999.90;999.90;;;18.10;99.90;;;;;;5075887;28;20047;-81
2023/05/28 06:48:48;;;;;;;1999.90;999.90;;;18.20;99.90;;;;;;5075387;28;20505;-72
2023/05/28 06:51:13;;;;;;;1999.90;999.90;;;18.40;99.90;;;;;;5075432;28;20399;-81
2023/05/28 06:53:39;;;;;;;1999.90;999.90;;;18.40;99.90;;;;;;5075282;28;20063;-81
2023/05/28 06:56:06;;;;;;;1999.90;999.90;;;18.50;99.90;;;;;;5075656;28;20035;-81
2023/05/28 06:58:31;;;;;;;1999.90;999.90;;;18.70;99.90;;;;;;5075121;28;20063;-81
2023/05/28 07:00:58;;;;;;;1999.90;999.90;;;18.70;99.90;;;;;;5075227;28;20495;-82
2023/05/28 07:03:24;;;;;;;1999.90;999.90;;;18.90;99.90;;;;;;5074574;28;20476;-73
2023/05/28 07:05:49;;;;;;;1999.90;999.90;;;18.90;99.90;;;;;;5075447;28;20028;-81
2023/05/28 07:08:15;;;;;;;1999.90;999.90;;;19.10;99.90;;;;;;5071572;28;20048;-81
2023/05/28 07:10:41;;;;;;;1999.90;999.90;;;19.30;99.90;;;;;;5055065;28;20044;-81
2023/05/28 07:13:07;;;;;;;1999.90;999.90;;;19.50;99.90;;;;;;5054843;28;20021;-73
2023/05/28 07:15:32;;;;;;;1999.90;999.90;;;19.60;99.90;;;;;;5053480;28;20035;-74
2023/05/28 07:18:00;;;;;;;1999.90;999.90;;;19.70;99.90;;;;;;5053565;28;20025;-82
2023/05/28 07:20:26;;;;;;;1999.90;999.90;;;19.80;99.90;;;;;;5075162;28;20025;-82
2023/05/28 07:22:52;;;;;;;1999.90;999.90;;;19.90;99.90;;;;;;5075125;28;20027;-82
2023/05/28 07:25:18;;;;;;;1999.90;999.90;;;20.10;99.90;;;;;;5074144;28;20044;-82
2023/05/28 07:27:43;;;;;;;1999.90;999.90;;;20.30;99.90;;;;;;5074934;28;20047;-73
2023/05/28 07:30:09;;;;;;;1999.90;999.90;;;20.50;99.90;;;;;;5074443;28;20480;-82
2023/05/28 07:32:35;;;;;;;1999.90;999.90;;;20.80;99.90;;;;;;5074995;28;20047;-82
2023/05/28 07:35:00;;;;;;;1999.90;999.90;;;22.10;99.90;;;;;;5074004;28;20032;-82
2023/05/28 07:37:26;;;;;;;1999.90;999.90;;;24.40;99.90;;;;;;5074078;28;20092;-82
2023/05/28 07:39:51;;;;;;;1999.90;999.90;;;25.40;99.90;;;;;;5074245;28;20376;-73
2023/05/28 07:42:17;;;;;;;1999.90;999.90;;;25.90;99.90;;;;;;5074475;28;20017;-73
2023/05/28 07:44:43;;;;;;;1999.90;999.90;;;26.50;99.90;;;;;;5074392;28;20538;-82
2023/05/28 07:47:08;;;;;;;1999.90;999.90;;;27.60;99.90;;;;;;5074631;28;20590;-82
2023/05/28 07:49:34;;;;;;;1999.90;999.90;;;27.70;99.90;;;;;;5074087;28;20029;-74
2023/05/28 07:51:59;;;;;;;1999.90;999.90;;;28.10;99.90;;;;;;5074098;28;20071;-71
2023/05/28 07:54:25;;;;;;;1999.90;999.90;;;28.80;99.90;;;;;;5074160;28;20035;-71
2023/05/28 07:56:50;;;;;;;1999.90;999.90;;;29.40;99.90;;;;;;5074592;28;20373;-80
2023/05/28 07:59:17;;;;;;;1999.90;999.90;;;28.60;99.90;;;;;;5073991;28;20035;-80
2023/05/28 08:01:43;;;;;;;1999.90;999.90;;;28.60;99.90;;;;;;5072357;28;20020;-80
2023/05/28 08:04:09;;;;;;;1999.90;999.90;;;29.20;99.90;;;;;;5073908;28;20029;-72
2023/05/28 08:06:35;;;;;;;1999.90;999.90;;;29.90;99.90;;;;;;5072619;28;20106;-71
2023/05/28 08:09:00;;;;;;;1999.90;999.90;;;30.40;99.90;;;;;;5073572;28;20129;-81
2023/05/28 08:11:26;;;;;;;1999.90;999.90;;;30.90;99.90;;;;;;5074057;28;20021;-81
2023/05/28 08:13:51;;;;;;;1999.90;999.90;;;30.80;99.50;;;;;;5073467;28;20463;-81
2023/05/28 08:16:17;;;;;;;1999.90;999.90;;;30.80;99.70;;;;;;5070939;28;20021;-81
2023/05/28 08:18:43;;;;;;;1999.90;999.90;;;31.40;99.70;;;;;;5053619;28;20075;-72
2023/05/28 08:21:08;;;;;;;1999.90;999.90;;;30.80;99.50;;;;;;5054108;28;20380;-72
2023/05/28 08:23:34;;;;;;;1999.90;999.90;;;31.60;99.10;;;;;;5053677;28;20027;-81
2023/05/28 08:26:03;;;;;;;1999.90;999.90;;;31.50;98.70;;;;;;5053500;28;20490;-81
2023/05/28 08:28:29;;;;;;;1999.90;999.90;;;32.00;98.30;;;;;;5053734;28;20033;-81
2023/05/28 08:30:56;;;;;;;1999.90;999.90;;;32.00;98.00;;;;;;5053265;28;20025;-82
2023/05/28 08:33:22;;;;;;;1999.90;999.90;;;31.70;97.90;;;;;;5053729;28;20044;-72
2023/05/28 08:35:48;;;;;;;1999.90;999.90;;;30.20;99.70;;;;;;5051281;28;20103;-81
2023/05/28 08:38:13;;;;;;;1999.90;999.90;;;30.80;99.00;;;;;;5053504;28;20021;-81
2023/05/28 08:40:41;;;;;;;1999.90;999.90;;;31.10;99.40;;;;;;5053492;28;20056;-81
2023/05/28 08:43:07;;;;;;;1999.90;999.90;;;32.10;97.80;;;;;;5053495;28;20400;-81
2023/05/28 08:45:35;;;;;;;1999.90;999.90;;;33.10;97.00;;;;;;5052523;28;20024;-72
2023/05/28 08:48:00;;;;;;;1999.90;999.90;;;33.50;97.20;;;;;;5052359;28;20029;-81
2023/05/28 08:50:28;;;;;;;1999.90;999.90;;;34.20;96.10;;;;;;5053239;28;20027;-72
2023/05/28 08:52:55;;;;;;;1999.90;999.90;;;34.80;94.90;;;;;;5053420;28;20029;-82
2023/05/28 08:55:21;;;;;;;1999.90;999.90;;;34.40;94.40;;;;;;5053131;28;20025;-81
2023/05/28 08:57:47;;;;;;;1999.90;999.90;;;34.40;94.60;;;;;;5052897;28;20024;-73
2023/05/28 09:00:13;;;;;;;1999.90;999.90;;;34.30;94.00;;;;;;5053112;28;20044;-72
2023/05/28 09:02:39;;;;;;;1999.90;999.90;;;34.00;94.60;;;;;;5054907;28;20021;-82
2023/05/28 09:05:05;;;;;;;1999.90;999.90;;;34.50;94.80;;;;;;5072992;28;20071;-82
2023/05/28 09:07:32;;;;;;;1999.90;999.90;;;34.10;93.60;;;;;;5072892;28;20452;-82
2023/05/28 09:09:58;;;;;;;1999.90;999.90;;;34.00;94.30;;;;;;5072595;28;20027;-82
2023/05/28 09:12:24;;;;;;;1999.90;999.90;;;34.20;93.80;;;;;;5072879;28;20033;-72
2023/05/28 09:14:52;;;;;;;1999.90;999.90;;;34.20;94.10;;;;;;5072839;28;20396;-82
2023/05/28 09:17:38;;;;;;;1999.90;999.90;;;34.30;93.50;;;;;;5061622;28;20021;-81
2023/05/28 09:20:12;;;;;;;1999.90;999.90;;;34.80;94.10;;;;;;5072747;28;20055;-82
2023/05/28 09:22:38;;;;;;;1999.90;999.90;;;35.80;93.50;;;;;;5073107;28;20017;-82
2023/05/28 09:25:08;;;;;;;1999.90;999.90;;;35.60;94.00;;;;;;5072712;28;20020;-82
2023/05/28 09:27:35;;;;;;;1999.90;999.90;;;35.60;92.60;;;;;;5072755;28;20017;-82
2023/05/28 09:30:08;;;;;;;1999.90;999.90;;;35.40;92.90;;;;;;5054585;28;20025;-82
2023/05/28 09:32:34;;;;;;;1999.90;999.90;;;35.00;92.70;;;;;;5072886;28;20511;-82
2023/05/28 09:35:01;;;;;;;1999.90;999.90;;;34.70;93.00;;;;;;5072728;28;20020;-83
2023/05/28 09:37:29;;;;;;;1999.90;999.90;;;34.40;93.10;;;;;;5071618;28;20021;-73
2023/05/28 09:40:08;;;;;;;1999.90;999.90;;;34.80;94.00;;;;;;5072333;28;20036;-73
2023/05/28 09:42:42;;;;;;;1999.90;999.90;;;35.60;93.40;;;;;;5072774;28;20125;-73
2023/05/28 09:45:11;;;;;;;1999.90;999.90;;;36.50;91.90;;;;;;5072653;28;20415;-82
2023/05/28 09:47:44;;;;;;;1999.90;999.90;;;37.00;92.30;;;;;;5072685;28;20391;-82
2023/05/28 09:50:10;;;;;;;1999.90;999.90;;;36.10;92.50;;;;;;5072472;28;20033;-73
2023/05/28 09:52:38;;;;;;;1999.90;999.90;;;35.40;92.50;;;;;;5072477;28;20039;-72
2023/05/28 09:55:07;;;;;;;1999.90;999.90;;;35.10;93.00;;;;;;5072473;28;20031;-83
2023/05/28 09:57:33;;;;;;;1999.90;999.90;;;35.40;92.00;;;;;;5072554;28;20427;-82
2023/05/28 10:00:34;;;;;;;1999.90;999.90;;;35.20;92.40;;;;;;5074219;28;20372;-82
2023/05/28 10:03:14;;;;;;;1999.90;999.90;;;35.40;92.20;;;;;;5073703;28;20020;-72
2023/05/28 10:05:43;;;;;;;1999.90;999.90;;;35.00;92.90;;;;;;5076366;28;20479;-73
2023/05/28 10:08:12;;;;;;;1999.90;999.90;;;34.50;92.20;;;;;;5076307;28;20063;-82
2023/05/28 10:10:40;;;;;;;1999.90;999.90;;;34.80;92.80;;;;;;5076170;28;20036;-82
2023/05/28 10:13:09;;;;;;;1999.90;999.90;;;35.40;92.90;;;;;;5076135;28;20099;-82
2023/05/28 10:15:36;;;;;;;1999.90;999.90;;;35.40;91.90;;;;;;5075955;28;20031;-73
2023/05/28 10:18:02;;;;;;;1999.90;999.90;;;35.00;90.90;;;;;;5058575;28;20044;-73
2023/05/28 10:20:29;;;;;;;1999.90;999.90;;;34.40;91.90;;;;;;5056281;28;20084;-82
2023/05/28 10:22:55;;;;;;;1999.90;999.90;;;34.80;92.10;;;;;;5055117;28;20492;-82
2023/05/28 10:25:22;;;;;;;1999.90;999.90;;;35.20;92.30;;;;;;5055859;28;20040;-82
2023/05/28 10:27:51;;;;;;;1999.90;999.90;;;35.70;91.00;;;;;;5055985;28;20490;-82
2023/05/28 10:30:33;;;;;;;1999.90;999.90;;;34.90;91.50;;;;;;5055853;28;20021;-73
2023/05/28 10:32:59;;;;;;;1999.90;999.90;;;35.00;91.70;;;;;;5056274;28;20159;-83
2023/05/28 10:35:24;;;;;;;1999.90;999.90;;;35.50;91.50;;;;;;5063139;28;20066;-82
2023/05/28 10:37:50;;;;;;;1999.90;999.90;;;35.30;91.50;;;;;;5074916;28;20024;-82
2023/05/28 10:40:23;;;;;;;1999.90;999.90;;;34.80;91.90;;;;;;5075710;28;20028;-82
2023/05/28 10:42:49;;;;;;;1999.90;999.90;;;34.80;90.90;;;;;;5075970;28;20403;-73
2023/05/28 10:45:15;;;;;;;1999.90;999.90;;;34.70;91.70;;;;;;5075606;28;20032;-81
2023/05/28 10:47:50;;;;;;;1999.90;999.90;;;34.60;91.20;;;;;;5075462;28;20036;-81
2023/05/28 10:50:16;;;;;;;1999.90;999.90;;;34.80;91.90;;;;;;5075679;28;20086;-73
2023/05/28 10:52:42;;;;;;;1999.90;999.90;;;34.80;91.80;;;;;;5075739;28;20021;-82
2023/05/28 10:55:10;;;;;;;1999.90;999.90;;;35.00;91.60;;;;;;5075496;28;20086;-73
2023/05/28 10:58:06;;;;;;;1999.90;999.90;;;34.60;91.20;;;;;;5075302;28;20020;-73
2023/05/28 11:00:40;;;;;;;1999.90;999.90;;;34.60;91.20;;;;;;5075100;28;20082;-73
2023/05/28 11:03:06;;;;;;;1999.90;999.90;;;34.70;91.00;;;;;;5075094;28;20463;-74
2023/05/28 11:05:34;;;;;;;1999.90;999.90;;;35.20;91.60;;;;;;5075091;28;20021;-73
2023/05/28 11:08:01;;;;;;;1999.90;999.90;;;35.50;90.50;;;;;;5075053;28;20048;-73
2023/05/28 11:10:28;;;;;;;1999.90;999.90;;;35.00;90.80;;;;;;5074679;28;20038;-72
2023/05/28 11:12:55;;;;;;;1999.90;999.90;;;34.90;90.90;;;;;;5074831;28;20044;-82
2023/05/28 11:15:21;;;;;;;1999.90;999.90;;;34.60;91.00;;;;;;5074950;28;20025;-72
2023/05/28 11:17:47;;;;;;;1999.90;999.90;;;34.10;91.60;;;;;;5059347;28;20503;-82
2023/05/28 11:20:27;;;;;;;1999.90;999.90;;;34.50;91.40;;;;;;5054513;28;20027;-73
2023/05/28 11:22:54;;;;;;;1999.90;999.90;;;35.20;91.40;;;;;;5054945;28;20041;-72
2023/05/28 11:25:25;;;;;;;1999.90;999.90;;;35.10;90.80;;;;;;5054757;28;20048;-81
2023/05/28 11:27:53;;;;;;;1999.90;999.90;;;35.70;91.60;;;;;;5053473;28;20404;-73
2023/05/28 11:30:19;;;;;;;1999.90;999.90;;;35.20;90.50;;;;;;5054653;28;20025;-81
2023/05/28 11:32:46;;;;;;;1999.90;999.90;;;34.70;91.30;;;;;;5054686;28;20094;-82
2023/05/28 11:35:13;;;;;;;1999.90;999.90;;;34.70;91.00;;;;;;5054886;28;20021;-73
2023/05/28 11:37:41;;;;;;;1999.90;999.90;;;35.20;90.90;;;;;;5053666;28;20112;-82
2023/05/28 11:40:12;;;;;;;1999.90;999.90;;;35.20;90.30;;;;;;5054644;28;20021;-82
2023/05/28 11:42:39;;;;;;;1999.90;999.90;;;35.50;90.90;;;;;;5054547;28;20025;-82
2023/05/28 11:45:06;;;;;;;1999.90;999.90;;;35.20;90.70;;;;;;5054456;28;20099;-82
2023/05/28 11:47:33;;;;;;;1999.90;999.90;;;35.10;91.30;;;;;;5054416;28;20024;-73
2023/05/28 11:50:05;;;;;;;1999.90;999.90;;;34.50;90.60;;;;;;5054084;28;20025;-73
2023/05/28 11:52:30;;;;;;;1999.90;999.90;;;34.60;91.40;;;;;;5054503;28;20377;-72
2023/05/28 11:54:57;;;;;;;1999.90;999.90;;;34.40;91.40;;;;;;5054284;28;20112;-82
2023/05/28 11:57:25;;;;;;;1999.90;999.90;;;35.00;90.80;;;;;;5054079;28;20044;-79